Time;durP1;ratioP1;P1;durP2;ratioP2;P2;SDS_P1;SDS_P2;PMS_P1;PMS_P2;Temp;Humidity;BMP_temperature;BMP_pressure;BME280_temperature;BME280_humidity;BME280_pressure;Samples;Min_cycle;Max_cycle;Signal;HPM_P1;HPM_P2
2021/07/29 00:00:32;;;;;;;5.60;4.03;;;;;;;;;;5114952;28;20201;-82
2021/07/29 00:03:01;;;;;;;8.87;4.23;;;;;;;;;;5115911;28;20226;-82
2021/07/29 00:05:28;;;;;;;7.53;4.30;;;;;;;;;;5115891;28;20233;-82
2021/07/29 00:07:56;;;;;;;6.20;4.23;;;;;;;;;;5116207;27;20202;-82
2021/07/29 00:10:23;;;;;;;6.03;4.20;;;;;;;;;;5116461;28;20240;-83
2021/07/29 00:12:50;;;;;;;8.63;4.13;;;;;;;;;;5116157;28;20251;-83
2021/07/29 00:15:18;;;;;;;5.77;3.70;;;;;;;;;;5115411;28;20240;-82
2021/07/29 00:20:33;;;;;;;8.07;4.43;;;;;;;;;;5114699;28;20549;-82
2021/07/29 00:23:01;;;;;;;7.23;3.77;;;;;;;;;;5113824;28;20278;-83
2021/07/29 00:25:29;;;;;;;6.87;3.47;;;;;;;;;;5114845;28;20225;-82
2021/07/29 00:27:57;;;;;;;6.80;3.50;;;;;;;;;;5115477;27;20266;-82
2021/07/29 00:30:25;;;;;;;8.90;3.60;;;;;;;;;;5114163;28;20202;-82
2021/07/29 00:32:53;;;;;;;7.00;3.60;;;;;;;;;;5115244;28;20194;-82
2021/07/29 00:35:20;;;;;;;9.47;3.93;;;;;;;;;;5113724;28;20238;-83
2021/07/29 00:37:50;;;;;;;8.63;3.90;;;;;;;;;;5114193;28;20197;-82
2021/07/29 00:40:17;;;;;;;8.40;3.77;;;;;;;;;;5114826;28;20201;-82
2021/07/29 00:42:44;;;;;;;7.03;3.17;;;;;;;;;;5115124;28;20604;-82
2021/07/29 00:45:12;;;;;;;6.80;3.47;;;;;;;;;;5114082;28;20293;-83
2021/07/29 00:47:41;;;;;;;7.23;3.70;;;;;;;;;;5114552;28;20197;-83
2021/07/29 00:50:08;;;;;;;9.20;4.13;;;;;;;;;;5113177;28;20250;-83
2021/07/29 00:52:36;;;;;;;8.50;4.40;;;;;;;;;;5113118;28;20201;-82
2021/07/29 00:55:04;;;;;;;11.03;4.67;;;;;;;;;;5112786;28;20193;-82
2021/07/29 00:57:32;;;;;;;12.23;5.10;;;;;;;;;;5112742;28;20247;-82
2021/07/29 01:00:00;;;;;;;7.70;4.80;;;;;;;;;;5112458;28;20589;-82
2021/07/29 01:02:27;;;;;;;8.57;4.73;;;;;;;;;;5112402;28;20209;-83
2021/07/29 01:04:55;;;;;;;10.60;4.80;;;;;;;;;;5112641;28;20674;-82
2021/07/29 01:07:22;;;;;;;8.30;5.13;;;;;;;;;;5112778;28;20193;-82
2021/07/29 01:09:49;;;;;;;6.60;4.67;;;;;;;;;;5112460;28;20234;-82
2021/07/29 01:12:18;;;;;;;10.90;4.97;;;;;;;;;;5112634;28;20237;-83
2021/07/29 01:14:46;;;;;;;6.17;4.80;;;;;;;;;;5112452;28;20582;-82
2021/07/29 01:17:13;;;;;;;9.03;4.93;;;;;;;;;;5112572;28;20282;-82
2021/07/29 01:19:41;;;;;;;11.47;5.03;;;;;;;;;;5112477;28;20624;-82
2021/07/29 01:22:10;;;;;;;8.63;4.70;;;;;;;;;;5112723;28;20229;-82
2021/07/29 01:24:37;;;;;;;8.57;4.60;;;;;;;;;;5112286;28;20762;-83
2021/07/29 01:27:05;;;;;;;8.40;4.67;;;;;;;;;;5112659;28;20202;-82
2021/07/29 01:29:32;;;;;;;10.53;5.30;;;;;;;;;;5112030;28;20193;-82
2021/07/29 01:31:59;;;;;;;9.00;5.10;;;;;;;;;;5112830;28;20197;-82
2021/07/29 01:34:27;;;;;;;7.77;4.93;;;;;;;;;;5114078;28;20237;-82
2021/07/29 01:36:55;;;;;;;7.77;5.20;;;;;;;;;;5116829;28;20240;-82
2021/07/29 01:39:24;;;;;;;7.03;4.97;;;;;;;;;;5116590;28;20201;-82
2021/07/29 01:41:51;;;;;;;11.57;4.97;;;;;;;;;;5116392;28;20198;-82
2021/07/29 01:44:18;;;;;;;8.27;4.97;;;;;;;;;;5116283;28;20233;-83
2021/07/29 01:46:46;;;;;;;9.10;4.57;;;;;;;;;;5116863;28;20672;-82
2021/07/29 01:49:19;;;;;;;9.67;4.77;;;;;;;;;;5115388;28;20225;-82
2021/07/29 01:51:46;;;;;;;7.07;4.33;;;;;;;;;;5116176;28;20207;-83
2021/07/29 01:54:13;;;;;;;9.90;4.93;;;;;;;;;;5116103;28;20885;-82
2021/07/29 01:56:43;;;;;;;9.00;4.70;;;;;;;;;;5116018;28;20297;-83
2021/07/29 01:59:28;;;;;;;8.93;4.43;;;;;;;;;;5105314;28;20260;-82
2021/07/29 02:01:55;;;;;;;9.50;4.40;;;;;;;;;;5096015;28;20645;-82
2021/07/29 02:04:22;;;;;;;7.93;4.27;;;;;;;;;;5095677;28;20230;-82
2021/07/29 02:06:49;;;;;;;8.70;4.50;;;;;;;;;;5095573;28;20222;-82
2021/07/29 02:09:17;;;;;;;10.63;4.40;;;;;;;;;;5095808;28;20660;-82
2021/07/29 02:11:49;;;;;;;7.47;4.90;;;;;;;;;;5095415;28;20195;-82
2021/07/29 02:14:18;;;;;;;10.83;4.57;;;;;;;;;;5095690;28;20198;-83
2021/07/29 02:16:45;;;;;;;9.27;5.13;;;;;;;;;;5095319;28;20282;-82
2021/07/29 02:19:13;;;;;;;9.70;5.10;;;;;;;;;;5095109;28;20202;-83
2021/07/29 02:21:42;;;;;;;9.13;5.60;;;;;;;;;;5095210;28;20198;-82
2021/07/29 02:24:09;;;;;;;8.47;5.43;;;;;;;;;;5095360;28;20214;-82
2021/07/29 02:26:37;;;;;;;14.80;7.13;;;;;;;;;;5094938;28;20255;-83
2021/07/29 02:29:05;;;;;;;11.93;7.50;;;;;;;;;;5094891;28;20202;-82
2021/07/29 02:31:32;;;;;;;11.17;8.60;;;;;;;;;;5094889;28;20707;-82
2021/07/29 02:34:00;;;;;;;17.07;9.37;;;;;;;;;;5095359;28;20222;-82
2021/07/29 02:36:27;;;;;;;11.67;9.67;;;;;;;;;;5095139;28;20206;-82
2021/07/29 02:38:54;;;;;;;13.00;10.33;;;;;;;;;;5095073;28;20203;-82
2021/07/29 02:41:21;;;;;;;13.67;10.40;;;;;;;;;;5094707;28;20191;-82
2021/07/29 02:43:48;;;;;;;12.60;10.00;;;;;;;;;;5094840;28;20266;-82
2021/07/29 02:46:17;;;;;;;13.87;10.50;;;;;;;;;;5093508;28;20707;-82
2021/07/29 02:48:45;;;;;;;11.60;9.67;;;;;;;;;;5095023;28;20655;-82
2021/07/29 02:51:12;;;;;;;18.20;10.10;;;;;;;;;;5095067;28;20256;-82
2021/07/29 02:53:39;;;;;;;14.10;9.33;;;;;;;;;;5094959;28;20202;-82
2021/07/29 02:56:08;;;;;;;12.00;8.47;;;;;;;;;;5094457;28;20224;-82
2021/07/29 02:58:36;;;;;;;10.30;7.80;;;;;;;;;;5094747;28;20203;-82
2021/07/29 03:01:04;;;;;;;13.27;7.80;;;;;;;;;;5094702;28;20202;-82
2021/07/29 03:03:33;;;;;;;9.60;7.47;;;;;;;;;;5111307;28;20206;-82
2021/07/29 03:06:01;;;;;;;15.67;6.93;;;;;;;;;;5114858;28;20202;-82
2021/07/29 03:08:28;;;;;;;12.40;6.73;;;;;;;;;;5114466;28;20693;-82
2021/07/29 03:10:58;;;;;;;13.57;6.70;;;;;;;;;;5114663;28;20557;-82
2021/07/29 03:13:25;;;;;;;11.20;6.10;;;;;;;;;;5114979;28;20208;-82
2021/07/29 03:15:53;;;;;;;9.00;5.90;;;;;;;;;;5114819;28;20289;-83
2021/07/29 03:18:20;;;;;;;10.53;6.17;;;;;;;;;;5114314;28;20205;-82
2021/07/29 03:20:49;;;;;;;13.67;6.33;;;;;;;;;;5114673;28;20198;-82
2021/07/29 03:23:17;;;;;;;11.23;6.40;;;;;;;;;;5114352;28;20275;-82
2021/07/29 03:25:48;;;;;;;10.50;6.10;;;;;;;;;;5114553;28;20261;-82
2021/07/29 03:28:15;;;;;;;11.87;6.20;;;;;;;;;;5114651;28;20201;-82
2021/07/29 03:30:42;;;;;;;11.50;6.47;;;;;;;;;;5114455;28;20202;-82
2021/07/29 03:33:10;;;;;;;11.03;6.40;;;;;;;;;;5114541;28;20202;-82
2021/07/29 03:35:38;;;;;;;12.20;6.60;;;;;;;;;;5114383;28;20240;-82
2021/07/29 03:38:07;;;;;;;13.10;6.60;;;;;;;;;;5113857;28;20201;-82
2021/07/29 03:40:34;;;;;;;10.60;6.27;;;;;;;;;;5114088;28;20606;-83
2021/07/29 03:43:02;;;;;;;15.00;6.07;;;;;;;;;;5114138;28;20258;-82
2021/07/29 03:45:30;;;;;;;11.90;6.53;;;;;;;;;;5113990;28;20712;-82
2021/07/29 03:47:57;;;;;;;11.93;6.40;;;;;;;;;;5114215;28;20201;-82
2021/07/29 03:50:25;;;;;;;10.30;5.47;;;;;;;;;;5113867;28;20229;-83
2021/07/29 03:52:52;;;;;;;10.50;5.40;;;;;;;;;;5113487;28;20229;-82
2021/07/29 03:55:21;;;;;;;10.40;5.80;;;;;;;;;;5113709;28;20273;-82
2021/07/29 03:57:49;;;;;;;13.27;6.10;;;;;;;;;;5113471;28;20255;-82
2021/07/29 04:00:16;;;;;;;13.23;6.13;;;;;;;;;;5114001;28;20225;-82
2021/07/29 04:02:44;;;;;;;13.00;5.70;;;;;;;;;;5114011;28;20262;-82
2021/07/29 04:05:11;;;;;;;11.47;5.87;;;;;;;;;;5093575;28;20581;-82
2021/07/29 04:07:39;;;;;;;11.27;6.10;;;;;;;;;;5093144;28;20203;-82
2021/07/29 04:10:07;;;;;;;13.73;6.03;;;;;;;;;;5093079;28;20222;-82
2021/07/29 04:12:35;;;;;;;11.40;6.37;;;;;;;;;;5093155;28;20600;-83
2021/07/29 04:15:03;;;;;;;12.70;6.20;;;;;;;;;;5093068;28;20199;-82
2021/07/29 04:17:30;;;;;;;13.73;5.73;;;;;;;;;;5093396;28;20202;-82
2021/07/29 04:19:59;;;;;;;9.83;5.83;;;;;;;;;;5093361;28;20263;-82
2021/07/29 04:22:26;;;;;;;14.33;5.50;;;;;;;;;;5093010;28;20202;-82
2021/07/29 04:24:55;;;;;;;11.77;5.33;;;;;;;;;;5093053;28;20223;-82
2021/07/29 04:27:22;;;;;;;11.40;5.33;;;;;;;;;;5093077;28;20289;-82
2021/07/29 04:29:51;;;;;;;11.17;5.40;;;;;;;;;;5092524;28;20198;-81
2021/07/29 04:32:20;;;;;;;10.63;5.40;;;;;;;;;;5093248;28;20202;-82
2021/07/29 04:34:47;;;;;;;11.50;5.30;;;;;;;;;;5093072;28;20194;-82
2021/07/29 04:37:14;;;;;;;10.77;5.50;;;;;;;;;;5095433;28;20209;-82
2021/07/29 04:39:42;;;;;;;10.40;5.67;;;;;;;;;;5113031;28;20660;-82
2021/07/29 04:42:11;;;;;;;11.83;5.37;;;;;;;;;;5113288;28;20205;-82
2021/07/29 04:44:39;;;;;;;12.60;5.47;;;;;;;;;;5112983;28;20233;-82
2021/07/29 04:47:11;;;;;;;10.93;5.80;;;;;;;;;;5113000;28;20250;-82
2021/07/29 04:49:40;;;;;;;12.80;5.37;;;;;;;;;;5113301;28;20206;-83
2021/07/29 04:52:09;;;;;;;9.67;5.40;;;;;;;;;;5112704;28;20660;-82
2021/07/29 04:54:38;;;;;;;10.50;5.70;;;;;;;;;;5111438;28;20684;-82
2021/07/29 04:57:08;;;;;;;10.37;5.50;;;;;;;;;;5112965;28;20202;-82
2021/07/29 04:59:39;;;;;;;12.57;5.70;;;;;;;;;;5112776;28;20623;-83
2021/07/29 05:02:10;;;;;;;12.03;5.67;;;;;;;;;;5112720;28;20664;-82
2021/07/29 05:04:40;;;;;;;14.67;5.70;;;;;;;;;;5112945;28;20225;-82
2021/07/29 05:07:09;;;;;;;8.93;5.20;;;;;;;;;;5112974;28;20193;-82
2021/07/29 05:09:38;;;;;;;12.43;5.80;;;;;;;;;;5112280;28;20275;-82
2021/07/29 05:12:08;;;;;;;8.77;5.27;;;;;;;;;;5112490;28;20197;-82
2021/07/29 05:14:35;;;;;;;11.57;5.40;;;;;;;;;;5112718;28;20198;-82
2021/07/29 05:17:04;;;;;;;13.87;6.03;;;;;;;;;;5112708;28;20236;-82
2021/07/29 05:19:33;;;;;;;12.93;5.70;;;;;;;;;;5112364;28;20201;-82
2021/07/29 05:22:00;;;;;;;10.77;5.67;;;;;;;;;;5112645;28;20597;-82
2021/07/29 05:24:27;;;;;;;16.17;6.10;;;;;;;;;;5112900;28;20198;-82
2021/07/29 05:26:55;;;;;;;9.60;5.57;;;;;;;;;;5112580;28;20263;-82
2021/07/29 05:29:22;;;;;;;13.90;5.50;;;;;;;;;;5112701;28;20231;-82
2021/07/29 05:31:49;;;;;;;13.60;5.53;;;;;;;;;;5112161;28;20677;-82
2021/07/29 05:34:17;;;;;;;12.23;6.27;;;;;;;;;;5112092;28;20990;-82
2021/07/29 05:36:45;;;;;;;8.70;5.50;;;;;;;;;;5112173;28;20202;-82
2021/07/29 05:39:12;;;;;;;12.53;5.50;;;;;;;;;;5112481;28;20202;-82
2021/07/29 05:41:40;;;;;;;11.97;5.17;;;;;;;;;;5112678;28;20273;-83
2021/07/29 05:44:07;;;;;;;12.80;5.60;;;;;;;;;;5112211;28;20263;-82
2021/07/29 05:46:35;;;;;;;15.20;5.47;;;;;;;;;;5112048;28;20266;-82
2021/07/29 05:49:02;;;;;;;14.10;5.27;;;;;;;;;;5112312;28;20239;-82
2021/07/29 05:51:29;;;;;;;11.47;4.80;;;;;;;;;;5112485;28;20190;-83
2021/07/29 05:53:58;;;;;;;9.37;4.93;;;;;;;;;;5112423;28;20247;-82
2021/07/29 05:56:25;;;;;;;11.13;4.43;;;;;;;;;;5112518;28;20361;-82
2021/07/29 05:58:52;;;;;;;10.20;4.17;;;;;;;;;;5112482;28;20202;-82
2021/07/29 06:01:20;;;;;;;7.07;4.13;;;;;;;;;;5112184;28;20254;-82
2021/07/29 06:03:47;;;;;;;7.47;3.87;;;;;;;;;;5111983;28;20661;-82
2021/07/29 06:06:15;;;;;;;7.80;3.80;;;;;;;;;;5112195;28;20271;-82
2021/07/29 06:08:43;;;;;;;11.00;3.50;;;;;;;;;;5112204;28;20711;-82
2021/07/29 06:11:12;;;;;;;7.70;3.55;;;;;;;;;;5112031;28;20255;-82
2021/07/29 06:13:40;;;;;;;8.77;3.75;;;;;;;;;;5112128;28;20201;-82
2021/07/29 06:16:09;;;;;;;8.73;3.47;;;;;;;;;;5111943;28;20205;-82
2021/07/29 06:18:42;;;;;;;9.55;3.03;;;;;;;;;;5110567;28;20247;-82
2021/07/29 06:21:09;;;;;;;7.18;3.00;;;;;;;;;;5113070;28;20286;-82
2021/07/29 06:23:37;;;;;;;6.22;2.45;;;;;;;;;;5115642;28;20223;-82
2021/07/29 06:26:04;;;;;;;7.07;2.55;;;;;;;;;;5115416;28;20714;-82
2021/07/29 06:28:35;;;;;;;7.05;2.60;;;;;;;;;;5115586;28;20287;-82
2021/07/29 06:31:02;;;;;;;6.07;2.55;;;;;;;;;;5115615;28;20193;-82
2021/07/29 06:33:29;;;;;;;6.65;2.50;;;;;;;;;;5115360;28;20247;-82
2021/07/29 06:35:56;;;;;;;8.07;2.78;;;;;;;;;;5115597;28;20197;-82
2021/07/29 06:38:24;;;;;;;5.32;2.28;;;;;;;;;;5115130;28;20206;-82
2021/07/29 06:40:51;;;;;;;8.02;2.47;;;;;;;;;;5115653;28;20639;-82
2021/07/29 06:43:18;;;;;;;7.43;2.88;;;;;;;;;;5115329;28;20234;-82
2021/07/29 06:45:47;;;;;;;5.60;2.15;;;;;;;;;;5114957;28;20257;-83
2021/07/29 06:48:16;;;;;;;6.30;2.40;;;;;;;;;;5114644;28;20587;-82
2021/07/29 06:50:43;;;;;;;7.03;2.03;;;;;;;;;;5114876;28;20645;-82
2021/07/29 06:53:11;;;;;;;5.28;2.08;;;;;;;;;;5114999;28;20194;-83
2021/07/29 06:55:39;;;;;;;6.53;2.08;;;;;;;;;;5115025;28;20649;-83
2021/07/29 06:58:06;;;;;;;9.10;2.15;;;;;;;;;;5115305;28;20206;-82
2021/07/29 07:00:33;;;;;;;7.38;2.38;;;;;;;;;;5114771;28;20202;-83
2021/07/29 07:03:02;;;;;;;6.75;2.10;;;;;;;;;;5114395;28;20205;-83
2021/07/29 07:05:30;;;;;;;3.95;1.67;;;24.90;99.90;;;;;;5114607;28;20757;-83
2021/07/29 07:07:57;;;;;;;4.65;1.92;;;;;;;;;;5114656;28;20202;-83
2021/07/29 07:10:24;;;;;;;7.25;2.03;;;;;;;;;;5114899;28;20201;-83
2021/07/29 07:12:52;;;;;;;4.53;1.67;;;;;;;;;;5114872;28;20577;-83
2021/07/29 07:15:19;;;;;;;4.72;1.80;;;;;;;;;;5114363;28;20237;-83
2021/07/29 07:17:47;;;;;;;5.55;2.05;;;;;;;;;;5114375;28;20234;-83
2021/07/29 07:20:16;;;;;;;5.20;1.85;;;;;;;;;;5114746;28;20237;-83
2021/07/29 07:22:43;;;;;;;4.47;1.80;;;;;;;;;;5114752;28;20237;-83
2021/07/29 07:25:10;;;;;;;5.57;1.70;;;;;;;;;;5114347;28;20229;-83
2021/07/29 07:27:38;;;;;;;3.40;1.40;;;;;;;;;;5114436;28;20537;-83
2021/07/29 07:30:05;;;;;;;3.05;1.50;;;;;;;;;;5113763;28;20804;-83
2021/07/29 07:32:33;;;;;;;5.80;1.77;;;;;;;;;;5113669;28;20270;-84
2021/07/29 07:35:00;;;;;;;4.15;1.85;;;;;;;;;;5114360;28;20205;-83
2021/07/29 07:37:29;;;;;;;3.65;1.50;;;;;;;;;;5114248;28;20198;-83
2021/07/29 07:39:56;;;;;;;3.80;1.75;;;;;;;;;;5114317;28;20246;-83
2021/07/29 07:42:24;;;;;;;4.65;1.70;;;;;;;;;;5114096;28;20661;-83
2021/07/29 07:44:55;;;;;;;5.00;1.60;;;;;;;;;;5113640;28;20283;-83
2021/07/29 07:47:22;;;;;;;4.57;1.67;;;;;;;;;;5113786;28;20217;-83
2021/07/29 07:49:49;;;;;;;6.28;2.10;;;;;;;;;;5113838;28;20233;-83
2021/07/29 07:52:16;;;;;;;4.10;1.70;;;;;;;;;;5113950;28;20198;-83
2021/07/29 07:54:45;;;;;;;5.30;1.83;;;;;;;;;;5114098;28;20259;-84
2021/07/29 07:57:14;;;;;;;4.00;1.50;;;;;;;;;;5113662;28;20194;-83
2021/07/29 07:59:41;;;;;;;4.80;1.70;;;;;;;;;;5113177;28;20689;-84
2021/07/29 08:02:09;;;;;;;2.95;1.73;;;;;;;;;;5113501;28;20197;-83
2021/07/29 08:04:36;;;;;;;6.32;1.95;;;;;;;;;;5114028;28;20198;-83
2021/07/29 08:07:05;;;;;;;5.53;1.80;;;;;;;;;;5113467;28;20700;-83
2021/07/29 08:09:32;;;;;;;6.28;1.85;;;;;;;;;;5113426;27;20610;-83
2021/07/29 08:12:01;;;;;;;4.57;1.60;;;;;;;;;;5113577;28;20209;-83
2021/07/29 08:14:28;;;;;;;4.97;1.70;;;;;;;;;;5113053;28;20246;-84
2021/07/29 08:16:55;;;;;;;2.60;1.20;;;;;;;;;;5113217;28;20615;-82
2021/07/29 08:19:25;;;;;;;4.68;1.20;;;;;;;;;;5113761;28;20198;-84
2021/07/29 08:21:53;;;;;;;3.95;1.42;;;;;;;;;;5113631;28;20232;-84
2021/07/29 08:24:20;;;;;;;3.63;1.50;;;;;;;;;;5113270;28;20193;-84
2021/07/29 08:26:47;;;;;;;3.97;1.50;;;;;;;;;;5113370;27;20257;-83
2021/07/29 08:29:16;;;;;;;3.72;1.70;;;;;;;;;;5113158;28;20197;-84
2021/07/29 08:31:44;;;;;;;4.38;1.60;;;;;;;;;;5113438;28;20217;-84
2021/07/29 08:34:11;;;;;;;5.50;1.80;;;;;;;;;;5113109;28;20353;-83
2021/07/29 08:36:38;;;;;;;3.65;1.75;;;;;;;;;;5113011;28;20193;-84
2021/07/29 08:39:05;;;;;;;4.85;1.70;;;;;;;;;;5113184;28;20198;-84
2021/07/29 08:41:33;;;;;;;3.08;1.50;;;;;;;;;;5113265;28;20572;-84
2021/07/29 08:44:00;;;;;;;6.25;1.90;;;;;;;;;;5111746;28;20321;-84
2021/07/29 08:46:28;;;;;;;5.13;1.88;;;;;;;;;;5112999;28;20294;-84
2021/07/29 08:48:56;;;;;;;5.88;1.95;;;;;;;;;;5112713;28;20696;-84
2021/07/29 08:51:24;;;;;;;2.58;1.20;;;;;;;;;;5113014;28;20226;-84
2021/07/29 08:53:52;;;;;;;3.25;1.30;;;;;;;;;;5112870;28;20205;-84
2021/07/29 08:56:23;;;;;;;3.67;1.63;;;;;;;;;;5112652;28;20683;-84
2021/07/29 08:58:50;;;;;;;4.10;1.60;;;;;;;;;;5111352;28;20258;-84
2021/07/29 09:01:18;;;;;;;4.47;1.90;;;;;;;;;;5112873;28;20233;-84
2021/07/29 09:03:52;;;;;;;5.88;2.10;;;;;;;;;;5112966;28;20193;-84
2021/07/29 09:06:19;;;;;;;2.70;1.80;;;;;;;;;;5111287;28;20637;-84
2021/07/29 09:08:47;;;;;;;4.07;2.17;;;;;;;;;;5112300;28;20716;-84
2021/07/29 09:11:32;;;;;;;4.57;1.90;;;;;;;;;;5112825;28;20250;-85
2021/07/29 09:14:12;;;;;;;2.42;1.77;;;;;;;;;;5112898;28;20201;-84
2021/07/29 09:16:55;;;;;;;3.00;1.60;;;;;;;;;;5114021;28;20197;-84
2021/07/29 09:19:34;;;;;;;2.67;1.33;;;;;;;;;;5114632;28;20233;-85
2021/07/29 09:22:08;;;;;;;3.70;1.60;;;;;;;;;;5114426;28;20197;-85
2021/07/29 09:24:36;;;;;;;2.97;1.50;;;;;;;;;;5113950;28;20228;-84
2021/07/29 09:27:03;;;;;;;3.17;1.50;;;;;;;;;;5113729;28;20270;-85
2021/07/29 09:29:31;;;;;;;2.10;1.48;;;;;;;;;;5113703;28;20197;-84
2021/07/29 09:32:09;;;;;;;2.28;1.42;;;;;;;;;;5114472;28;20314;-84
2021/07/29 09:34:48;;;;;;;2.38;1.40;;;;;;;;;;5113905;28;20246;-84
2021/07/29 09:37:16;;;;;;;2.50;1.55;;;;;;;;;;5115209;28;20194;-85
2021/07/29 09:39:43;;;;;;;3.80;1.67;;;;;;;;;;5113799;28;20202;-84
2021/07/29 09:42:19;;;;;;;3.35;1.80;;;;;;;;;;5112598;28;20680;-85
2021/07/29 09:44:47;;;;;;;4.13;1.40;;;;;;;;;;5113264;28;20236;-84
2021/07/29 09:47:15;;;;;;;3.15;1.45;;;;;;;;;;5113920;28;20226;-85
2021/07/29 09:49:42;;;;;;;1.83;1.40;;;;;;;;;;5113682;28;20198;-86
2021/07/29 09:52:11;;;;;;;4.80;1.42;;;;;;;;;;5114092;28;20618;-85
2021/07/29 09:54:39;;;;;;;5.10;1.42;;;;;;;;;;5114264;28;20197;-85
2021/07/29 09:57:07;;;;;;;1.83;1.33;;;;;;;;;;5117442;28;20193;-84
2021/07/29 09:59:34;;;;;;;4.15;1.48;;;;;;;;;;5117771;28;20240;-84
2021/07/29 10:02:02;;;;;;;2.88;1.48;;;;;;;;;;5117795;28;20193;-84
2021/07/29 10:04:32;;;;;;;3.08;1.30;;;;;;;;;;5117681;28;20202;-85
2021/07/29 10:07:01;;;;;;;3.95;2.45;;;;;;;;;;5117334;27;20701;-84
2021/07/29 10:09:30;;;;;;;8.98;7.10;;;;;;;;;;5116854;28;20674;-84
2021/07/29 10:11:59;;;;;;;2.90;1.98;;;;;;;;;;5118134;28;20254;-85
2021/07/29 10:14:44;;;;;;;3.42;1.30;;;;;;;;;;5118329;28;20201;-84
2021/07/29 10:17:12;;;;;;;3.25;1.75;;;;;;;;;;5115999;28;20200;-84
2021/07/29 10:20:01;;;;;;;2.65;1.38;;;;;;;;;;5117412;28;20248;-84
2021/07/29 10:22:28;;;;;;;3.53;1.60;;;;;;;;;;5117149;28;20669;-84
2021/07/29 10:24:57;;;;;;;2.10;1.58;;;;;;;;;;5116114;28;20236;-84
2021/07/29 10:27:24;;;;;;;2.83;1.98;;;;;;;;;;5117369;28;20274;-85
2021/07/29 10:29:52;;;;;;;4.03;2.00;;;;;;;;;;5118503;28;20231;-84
2021/07/29 10:32:39;;;;;;;3.15;1.67;;;;;;;;;;5116935;28;20221;-84
2021/07/29 10:35:37;;;;;;;3.50;1.55;;;;;;;;;;5117134;28;20202;-85
2021/07/29 10:38:04;;;;;;;2.25;1.50;;;;;;;;;;5115650;28;20306;-84
2021/07/29 10:40:37;;;;;;;2.83;1.52;;;;;;;;;;5117708;28;20209;-84
2021/07/29 10:43:23;;;;;;;2.47;1.20;;;;;;;;;;5117957;28;20233;-83
2021/07/29 10:45:50;;;;;;;2.92;1.40;;;;;;;;;;5117156;28;20270;-84
2021/07/29 10:48:32;;;;;;;3.30;1.63;;;;;;;;;;5117918;28;20259;-85
2021/07/29 10:51:12;;;;;;;2.38;1.33;;;;;;;;;;5117509;28;20632;-84
2021/07/29 10:53:40;;;;;;;2.58;1.35;;;;;;;;;;5117688;28;20229;-84
2021/07/29 10:56:09;;;;;;;2.08;1.10;;;;;;;;;;5117691;28;20608;-85
2021/07/29 10:58:40;;;;;;;2.17;1.20;;;;;;;;;;5117661;28;20224;-84
2021/07/29 11:01:08;;;;;;;2.50;1.23;;;;;;;;;;5117579;27;20208;-84
2021/07/29 11:03:37;;;;;;;3.03;1.30;;;;;;;;;;5116827;28;20205;-84
2021/07/29 11:06:07;;;;;;;3.15;1.33;;;;;;;;;;5116274;28;20259;-85
2021/07/29 11:08:34;;;;;;;2.60;1.33;;;;;;;;;;5116312;28;20365;-78
2021/07/29 11:11:02;;;;;;;2.08;1.23;;;;;;;;;;5114437;28;20205;-78
2021/07/29 11:13:31;;;;;;;3.30;1.33;;;;;;;;;;5114647;28;20221;-78
2021/07/29 11:16:00;;;;;;;3.72;1.95;;;;;;;;;;5114745;28;20237;-78
2021/07/29 11:18:27;;;;;;;5.38;1.77;;;;;;;;;;5114599;28;20197;-78
2021/07/29 11:20:54;;;;;;;4.07;1.95;;;;;;;;;;5114571;28;20205;-78
2021/07/29 11:23:35;;;;;;;5.43;1.77;;;;;;;;;;5113864;28;20284;-78
2021/07/29 11:26:02;;;;;;;3.25;1.92;;;;;;;;;;5114432;27;20341;-78
2021/07/29 11:28:31;;;;;;;2.35;1.27;;;;;;;;;;5114244;28;20266;-77
2021/07/29 11:30:59;;;;;;;2.72;1.40;;;;;;;;;;5114389;28;20201;-77
2021/07/29 11:33:28;;;;;;;3.03;1.40;;;;;;;;;;5114302;28;20237;-77
2021/07/29 11:35:55;;;;;;;2.28;1.08;;;;;;;;;;5114492;28;20255;-77
2021/07/29 11:38:23;;;;;;;2.95;1.27;;;;;;;;;;5113762;27;20282;-77
2021/07/29 11:41:00;;;;;;;4.45;1.70;;;;;;;;;;5114016;28;20274;-78
2021/07/29 11:43:28;;;;;;;1.98;1.13;;;;;;;;;;5113874;28;20312;-78
2021/07/29 11:46:06;;;;;;;3.72;1.30;;;;;;;;;;5114069;28;20229;-78
2021/07/29 11:48:33;;;;;;;3.83;1.30;;;;;;;;;;5113828;28;20285;-77
2021/07/29 11:51:00;;;;;;;2.40;1.30;;;;;;;;;;5113592;28;20205;-77
2021/07/29 11:53:38;;;;;;;1.92;1.20;;;;;;;;;;5114095;28;20284;-78
2021/07/29 11:56:07;;;;;;;3.70;1.20;;;;;;;;;;5113795;28;20197;-78
2021/07/29 11:58:34;;;;;;;2.25;1.15;;;;;;;;;;5114002;28;20523;-78
2021/07/29 12:01:09;;;;;;;2.47;1.20;;;;;;;;;;5113896;28;20229;-78
2021/07/29 12:03:39;;;;;;;1.85;1.40;;;;;;;;;;5113521;28;20686;-77
2021/07/29 12:06:06;;;;;;;2.55;1.40;;;;;;;;;;5113595;28;20202;-76
2021/07/29 12:08:34;;;;;;;2.67;1.30;;;;;;;;;;5113363;28;20233;-77
2021/07/29 12:11:01;;;;;;;4.07;1.30;;;;;;;;;;5113323;28;20270;-78
2021/07/29 12:13:30;;;;;;;1.95;1.23;;;;;;;;;;5113339;28;20198;-77
2021/07/29 12:15:58;;;;;;;2.03;1.30;;;;;;;;;;5113514;28;20198;-77
2021/07/29 12:18:26;;;;;;;2.58;1.23;;;;;;;;;;5113253;28;20282;-77
2021/07/29 12:20:55;;;;;;;3.35;1.88;;;;;;;;;;5112599;28;20683;-77
2021/07/29 12:23:23;;;;;;;4.13;1.40;;;;;;;;;;5113130;28;20677;-78
2021/07/29 12:25:51;;;;;;;2.75;1.42;;;;;;;;;;5113316;28;20665;-77
2021/07/29 12:28:39;;;;;;;1.70;1.20;;;;;;;;;;5113318;28;20275;-78
2021/07/29 12:31:17;;;;;;;2.63;1.40;;;;;;;;;;5113207;28;20201;-78
2021/07/29 12:33:48;;;;;;;2.15;1.20;;;;;;;;;;5113068;28;20661;-77
2021/07/29 12:36:17;;;;;;;3.40;1.60;;;;;;;;;;5112959;28;20201;-77
2021/07/29 12:38:45;;;;;;;2.20;1.27;;;;;;;;;;5112817;28;20200;-77
2021/07/29 12:41:12;;;;;;;4.18;1.50;;;;;;;;;;5112977;28;20290;-77
2021/07/29 12:43:39;;;;;;;3.05;1.33;;;;;;;;;;5112592;28;20233;-77
2021/07/29 12:46:08;;;;;;;6.40;1.65;;;;;;;;;;5113263;28;20743;-77
2021/07/29 12:48:51;;;;;;;3.70;1.40;;;;;;;;;;5113172;28;20263;-77
2021/07/29 12:54:13;;;;;;;3.05;1.20;;;;;;;;;;5151161;27;21081;-77
2021/07/29 12:56:40;;;;;;;2.63;1.40;;;;;;;;;;5151182;27;20235;-77
2021/07/29 12:59:08;;;;;;;6.60;1.77;;;;;;;;;;5151243;27;20279;-77
2021/07/29 13:01:35;;;;;;;2.17;1.35;;;;;;;;;;5151164;27;20294;-77
2021/07/29 13:04:03;;;;;;;3.78;1.63;;;;;;;;;;5150497;27;20192;-77
2021/07/29 13:06:30;;;;;;;3.40;1.33;;;;;;;;;;5150950;27;20694;-77
2021/07/29 13:08:58;;;;;;;3.45;1.50;;;;;;;;;;5151122;27;20263;-77
2021/07/29 13:11:28;;;;;;;3.95;1.80;;;;;;;;;;5150705;27;20279;-77
2021/07/29 13:13:55;;;;;;;2.90;1.67;;;;;;;;;;5150707;27;20249;-77
2021/07/29 13:16:22;;;;;;;1.95;1.33;;;;;;;;;;5151009;27;20273;-77
2021/07/29 13:18:50;;;;;;;2.08;1.50;;;;;;;;;;5150617;27;20204;-77
2021/07/29 13:21:17;;;;;;;3.22;1.35;;;;;;;;;;5150903;27;20283;-77
2021/07/29 13:23:44;;;;;;;2.40;1.65;;;;;;;;;;5150735;27;20199;-77
2021/07/29 13:26:11;;;;;;;2.47;1.40;;;;;;;;;;5150619;27;20224;-77
2021/07/29 13:28:40;;;;;;;2.42;1.48;;;;;;;;;;5150890;27;20566;-78
2021/07/29 13:31:07;;;;;;;3.22;1.23;;;;;;;;;;5150429;27;20705;-77
2021/07/29 13:33:34;;;;;;;3.13;1.52;;;;;;;;;;5150383;27;20315;-77
2021/07/29 13:36:01;;;;;;;5.80;1.95;;;;;;;;;;5150215;27;20196;-77
2021/07/29 13:38:29;;;;;;;3.92;1.70;;;;;;;;;;5150395;27;20386;-77
2021/07/29 13:40:56;;;;;;;3.20;1.30;;;;;;;;;;5150498;27;20283;-77
2021/07/29 13:43:23;;;;;;;3.60;1.50;;;;;;;;;;5150434;27;20317;-77
2021/07/29 13:45:51;;;;;;;3.20;1.45;;;;;;;;;;5150443;27;20192;-77
2021/07/29 13:48:18;;;;;;;1.73;1.10;;;;;;;;;;5149837;27;20217;-77
2021/07/29 13:50:46;;;;;;;2.40;1.40;;;;;;;;;;5150211;27;20287;-77
2021/07/29 13:53:13;;;;;;;3.00;1.50;;;;;;;;;;5149762;27;20300;-77
2021/07/29 13:55:41;;;;;;;4.20;1.52;;;;;;;;;;5150039;27;20207;-77
2021/07/29 13:58:08;;;;;;;3.45;1.50;;;;;;;;;;5150164;27;20196;-77
2021/07/29 14:00:36;;;;;;;2.45;1.35;;;;;;;;;;5150081;27;20698;-77
2021/07/29 14:03:06;;;;;;;2.10;1.40;;;;;;;;;;5149317;27;20280;-77
2021/07/29 14:05:41;;;;;;;2.60;1.25;;;;;;;;;;5136286;27;20229;-77
2021/07/29 14:08:08;;;;;;;5.32;1.40;;;;;;;;;;5135866;27;20221;-77
2021/07/29 14:10:35;;;;;;;3.10;1.30;;;;;;;;;;5135912;27;20197;-78
2021/07/29 14:13:02;;;;;;;4.53;1.63;;;;;;;;;;5135994;27;20217;-77
2021/07/29 14:15:30;;;;;;;4.45;1.58;;;;;;;;;;5135957;27;20581;-77
2021/07/29 14:17:59;;;;;;;3.28;1.60;;;;;;;;;;5135682;27;20621;-77
2021/07/29 14:20:30;;;;;;;2.38;1.60;;;;;;;;;;5135732;27;20198;-77
2021/07/29 14:23:08;;;;;;;4.13;1.50;;;;;;;;;;5135868;27;20197;-78
2021/07/29 14:25:37;;;;;;;3.15;1.52;;;;;;;;;;5135718;27;20193;-77
2021/07/29 14:28:04;;;;;;;3.90;1.33;;;;;;;;;;5135304;27;20641;-77
2021/07/29 14:30:32;;;;;;;2.05;1.30;;;;;;;;;;5135236;27;20284;-77
2021/07/29 14:32:59;;;;;;;3.00;1.30;;;;;;;;;;5135130;27;20319;-77
2021/07/29 14:35:27;;;;;;;2.17;1.40;;;;;;;;;;5135439;27;20193;-77
2021/07/29 14:37:54;;;;;;;2.70;1.60;;;;;;;;;;5135677;27;20292;-77
2021/07/29 14:40:21;;;;;;;3.58;1.30;;;;;;;;;;5135163;27;20197;-78
2021/07/29 14:42:49;;;;;;;4.43;1.27;;;;;;;;;;5135516;27;20276;-77
2021/07/29 14:50:45;;;;;;;2.75;1.27;;;;;;;;;;5135365;27;20663;-77
2021/07/29 14:53:12;;;;;;;3.65;1.45;;;;;;;;;;5134916;27;20239;-77
2021/07/29 14:55:50;;;;;;;2.88;1.60;;;;;;;;;;5135008;27;20284;-77
2021/07/29 15:18:20;;;;;;;2.28;1.20;;;;;;;;;;5134774;27;20196;-77